Time;durP1;ratioP1;P1;durP2;ratioP2;P2;SDS_P1;SDS_P2;PMS_P1;PMS_P2;Temp;Humidity;BMP_temperature;BMP_pressure;BME280_temperature;BME280_humidity;BME280_pressure;Samples;Min_cycle;Max_cycle;Signal;HPM_P1;HPM_P2
2022/12/02 00:00:25;;;;;;;21.05;15.07;;;5.40;99.90;;;;;;5070671;28;20035;-77
2022/12/02 00:02:53;;;;;;;18.67;13.43;;;5.40;99.90;;;;;;5068958;28;20020;-77
2022/12/02 00:05:31;;;;;;;20.92;14.52;;;5.40;99.90;;;;;;5072050;28;20021;-77
2022/12/02 00:08:15;;;;;;;19.70;15.35;;;5.40;99.90;;;;;;5064350;28;20500;-77
2022/12/02 00:10:43;;;;;;;22.35;14.88;;;5.40;99.90;;;;;;5072151;28;20082;-77
2022/12/02 00:13:45;;;;;;;23.13;16.58;;;5.40;99.90;;;;;;5067174;28;20019;-77
2022/12/02 00:16:24;;;;;;;22.42;16.88;;;5.40;99.90;;;;;;5072633;28;20056;-77
2022/12/02 00:18:52;;;;;;;21.13;14.43;;;5.40;99.90;;;;;;5068856;28;20037;-78
2022/12/02 00:21:19;;;;;;;18.17;14.43;;;5.40;99.90;;;;;;5063652;28;20042;-77
2022/12/02 00:23:45;;;;;;;18.83;14.48;;;5.30;99.90;;;;;;5067932;28;20095;-77
2022/12/02 00:26:11;;;;;;;53.80;35.63;;;5.40;99.90;;;;;;5060986;28;20041;-78
2022/12/02 00:28:37;;;;;;;15.90;12.70;;;5.40;99.90;;;;;;5063436;28;20036;-77
2022/12/02 00:31:03;;;;;;;50.97;34.40;;;5.30;99.90;;;;;;5069933;28;20024;-78
2022/12/02 00:33:29;;;;;;;18.60;13.93;;;5.40;99.90;;;;;;5071259;28;20086;-77
2022/12/02 00:35:55;;;;;;;18.25;13.85;;;5.40;99.90;;;;;;5070713;28;20024;-77
2022/12/02 00:38:21;;;;;;;21.08;13.93;;;5.40;99.90;;;;;;5071228;28;20020;-77
2022/12/02 00:40:46;;;;;;;20.00;14.30;;;5.40;99.90;;;;;;5073248;28;20082;-78
2022/12/02 00:48:41;;;;;;;16.65;13.32;;;5.40;99.90;;;;;;5072596;28;20507;-77
2022/12/02 00:51:07;;;;;;;21.60;14.40;;;5.40;99.90;;;;;;5066174;28;20025;-77
2022/12/02 00:53:33;;;;;;;17.27;13.60;;;5.40;99.90;;;;;;5065780;28;20044;-77
2022/12/02 00:55:59;;;;;;;17.48;13.20;;;5.40;99.90;;;;;;5065062;28;20025;-77
2022/12/02 00:58:25;;;;;;;19.13;13.45;;;5.40;99.90;;;;;;5063042;28;20035;-77
2022/12/02 01:00:51;;;;;;;20.08;14.68;;;5.40;99.90;;;;;;5071162;28;20077;-77
2022/12/02 01:03:17;;;;;;;21.30;14.60;;;5.30;99.90;;;;;;5068266;28;20088;-77
2022/12/02 01:05:42;;;;;;;18.50;14.77;;;5.30;99.90;;;;;;5069955;28;20049;-77
2022/12/02 01:08:08;;;;;;;18.90;13.63;;;5.30;99.90;;;;;;5069451;28;20025;-76
2022/12/02 01:10:34;;;;;;;20.02;14.45;;;5.30;99.90;;;;;;5071207;28;20488;-77
2022/12/02 01:13:00;;;;;;;18.63;14.25;;;5.30;99.90;;;;;;5065955;28;20036;-77
2022/12/02 01:15:26;;;;;;;25.08;15.30;;;5.30;99.90;;;;;;5074096;28;20059;-76
2022/12/02 01:17:52;;;;;;;22.00;15.02;;;5.30;99.90;;;;;;5068728;28;20051;-77
2022/12/02 01:20:18;;;;;;;22.63;16.42;;;5.30;99.90;;;;;;5067097;28;20032;-77
2022/12/02 01:22:43;;;;;;;20.85;15.38;;;5.30;99.90;;;;;;5060766;28;20020;-77
2022/12/02 01:25:09;;;;;;;22.70;16.17;;;5.30;99.90;;;;;;5071826;28;20500;-77
2022/12/02 01:27:35;;;;;;;50.85;30.48;;;5.30;99.90;;;;;;5072976;28;20122;-77
2022/12/02 01:30:01;;;;;;;25.95;17.90;;;5.30;99.90;;;;;;5066943;28;20053;-77
2022/12/02 01:32:27;;;;;;;43.13;27.05;;;5.30;99.90;;;;;;5063882;28;20033;-77
2022/12/02 01:34:52;;;;;;;25.52;18.25;;;5.30;99.90;;;;;;5074532;28;20375;-76
2022/12/02 01:37:18;;;;;;;26.17;18.67;;;5.30;99.90;;;;;;5069450;28;20046;-77
2022/12/02 01:39:44;;;;;;;20.63;14.85;;;5.30;99.90;;;;;;5067959;28;20033;-77
2022/12/02 01:42:10;;;;;;;20.35;15.95;;;5.30;99.90;;;;;;5068540;28;20025;-77
2022/12/02 01:44:37;;;;;;;21.75;14.35;;;5.40;99.90;;;;;;5067928;28;20067;-77
2022/12/02 01:47:04;;;;;;;37.20;23.58;;;5.40;99.90;;;;;;5065821;28;20024;-77
2022/12/02 01:49:30;;;;;;;84.93;49.38;;;5.40;99.90;;;;;;5066862;28;20097;-77
2022/12/02 01:51:56;;;;;;;65.93;38.65;;;5.30;99.90;;;;;;5065770;28;20017;-77
2022/12/02 01:54:22;;;;;;;67.30;42.97;;;5.40;99.90;;;;;;5068041;28;20028;-77
2022/12/02 01:56:47;;;;;;;112.70;66.38;;;5.40;99.90;;;;;;5066805;28;20033;-77
2022/12/02 01:59:15;;;;;;;193.35;106.45;;;5.40;99.90;;;;;;5071290;28;20028;-78
2022/12/02 02:01:41;;;;;;;41.67;27.75;;;5.40;99.90;;;;;;5078385;28;20116;-77
2022/12/02 02:04:08;;;;;;;24.75;17.08;;;5.40;99.90;;;;;;5072568;28;20044;-78
2022/12/02 02:06:37;;;;;;;25.65;16.75;;;5.40;99.90;;;;;;5058973;28;20024;-77
2022/12/02 02:09:03;;;;;;;26.25;17.20;;;5.40;99.90;;;;;;5062910;28;20473;-77
2022/12/02 02:11:29;;;;;;;22.52;16.77;;;5.40;99.90;;;;;;5074045;28;20055;-77
2022/12/02 02:13:56;;;;;;;22.50;16.38;;;5.40;99.90;;;;;;5067041;28;20021;-77
2022/12/02 02:16:22;;;;;;;35.92;21.70;;;5.40;99.90;;;;;;5074267;28;20536;-77
2022/12/02 02:18:48;;;;;;;27.40;19.40;;;5.30;99.90;;;;;;5071228;28;20025;-77
2022/12/02 02:21:21;;;;;;;29.00;19.25;;;5.40;99.90;;;;;;5066551;28;20035;-77
2022/12/02 02:23:47;;;;;;;27.95;16.40;;;5.40;99.90;;;;;;5069831;28;20032;-77
2022/12/02 02:26:13;;;;;;;24.05;16.15;;;5.40;99.90;;;;;;5065395;28;20041;-77
2022/12/02 02:28:39;;;;;;;26.70;16.92;;;5.40;99.90;;;;;;5072483;28;20025;-77
2022/12/02 02:31:05;;;;;;;24.35;17.48;;;5.40;99.90;;;;;;5071120;28;20030;-77
2022/12/02 02:33:33;;;;;;;40.17;25.65;;;5.40;99.90;;;;;;5073257;28;20025;-77
2022/12/02 02:36:00;;;;;;;37.00;23.67;;;5.40;99.90;;;;;;5073086;28;20532;-78
2022/12/02 02:38:28;;;;;;;196.13;107.22;;;5.50;99.90;;;;;;5071920;28;20078;-78
2022/12/02 02:40:55;;;;;;;88.38;53.33;;;5.50;99.90;;;;;;5072918;28;20073;-77
2022/12/02 02:43:23;;;;;;;130.02;73.75;;;5.50;99.90;;;;;;5063067;28;20086;-77
2022/12/02 02:45:50;;;;;;;34.38;21.92;;;5.40;99.90;;;;;;5073677;28;20025;-77
2022/12/02 02:48:17;;;;;;;34.67;22.08;;;5.50;99.90;;;;;;5067804;28;20021;-78
2022/12/02 02:50:45;;;;;;;30.83;18.23;;;5.40;99.90;;;;;;5072685;28;20409;-77
2022/12/02 02:53:14;;;;;;;30.48;17.95;;;5.40;99.90;;;;;;5066002;28;20111;-77
2022/12/02 02:55:40;;;;;;;27.83;17.75;;;5.40;99.90;;;;;;5068857;28;20017;-78
2022/12/02 02:58:19;;;;;;;26.60;18.00;;;5.40;99.90;;;;;;5063801;28;20037;-77
2022/12/02 03:00:51;;;;;;;27.55;18.13;;;5.50;99.90;;;;;;5072721;28;20016;-78
2022/12/02 03:03:20;;;;;;;25.98;17.95;;;5.50;99.90;;;;;;5070181;28;20060;-77
2022/12/02 03:05:48;;;;;;;29.25;18.58;;;5.50;99.90;;;;;;5071778;28;20021;-77
2022/12/02 03:08:14;;;;;;;27.88;17.05;;;5.50;99.90;;;;;;5066100;28;20061;-78
2022/12/02 03:10:40;;;;;;;27.75;17.38;;;5.50;99.90;;;;;;5075048;28;20039;-77
2022/12/02 03:13:07;;;;;;;31.08;18.77;;;5.50;99.90;;;;;;5068114;28;20037;-77
2022/12/02 03:15:33;;;;;;;33.58;19.60;;;5.50;99.90;;;;;;5076180;28;20170;-77
2022/12/02 03:17:59;;;;;;;49.50;29.23;;;5.50;99.90;;;;;;5068068;28;20025;-77
2022/12/02 03:20:25;;;;;;;25.83;17.60;;;5.50;99.90;;;;;;5076628;28;20048;-77
2022/12/02 03:22:51;;;;;;;26.10;16.40;;;5.50;99.90;;;;;;5067389;28;20025;-77
2022/12/02 03:25:17;;;;;;;75.00;44.60;;;5.60;99.90;;;;;;5076748;28;20052;-78
2022/12/02 03:27:43;;;;;;;29.77;18.05;;;5.60;99.90;;;;;;5075712;28;20029;-77
2022/12/02 03:30:10;;;;;;;225.75;119.13;;;5.60;99.90;;;;;;5077416;28;20031;-77
2022/12/02 03:32:37;;;;;;;46.78;30.13;;;5.60;99.90;;;;;;5075112;28;20025;-77
2022/12/02 03:35:04;;;;;;;27.60;17.75;;;5.60;99.90;;;;;;5071166;28;20013;-77
2022/12/02 03:37:30;;;;;;;29.33;19.88;;;5.60;99.90;;;;;;5075053;28;20054;-77
2022/12/02 03:39:56;;;;;;;30.70;19.10;;;5.60;99.90;;;;;;5069605;28;20462;-77
2022/12/02 03:42:22;;;;;;;43.95;28.73;;;5.60;99.90;;;;;;5070554;28;20028;-77
2022/12/02 03:44:49;;;;;;;33.25;18.60;;;5.50;99.90;;;;;;5065874;28;20035;-77
2022/12/02 03:47:15;;;;;;;28.17;17.23;;;5.60;99.90;;;;;;5070014;28;20135;-77
2022/12/02 03:49:43;;;;;;;27.25;17.25;;;5.50;99.90;;;;;;5065438;28;20021;-77
2022/12/02 03:52:10;;;;;;;28.52;17.90;;;5.50;99.90;;;;;;5065293;28;20085;-77
2022/12/02 03:54:36;;;;;;;28.33;17.70;;;5.60;99.90;;;;;;5067066;28;20021;-77
2022/12/02 03:57:06;;;;;;;28.50;18.92;;;5.50;99.90;;;;;;5062849;28;20032;-77
2022/12/02 03:59:33;;;;;;;26.67;16.80;;;5.50;99.90;;;;;;5067389;28;20024;-77
2022/12/02 04:01:58;;;;;;;25.27;15.77;;;5.50;99.90;;;;;;5076855;28;20121;-77
2022/12/02 04:04:24;;;;;;;25.90;15.90;;;5.50;99.90;;;;;;5070059;28;20115;-76
2022/12/02 04:06:50;;;;;;;22.70;15.18;;;5.50;99.90;;;;;;5067615;28;20017;-77
2022/12/02 04:09:16;;;;;;;25.27;17.40;;;5.50;99.90;;;;;;5067524;28;20033;-77
2022/12/02 04:11:42;;;;;;;27.13;16.52;;;5.50;99.90;;;;;;5071157;28;20110;-77
2022/12/02 04:14:07;;;;;;;24.20;15.70;;;5.50;99.90;;;;;;5070400;28;20116;-77
2022/12/02 04:16:33;;;;;;;23.38;15.98;;;5.50;99.90;;;;;;5059807;28;20018;-77
2022/12/02 04:18:59;;;;;;;26.65;16.23;;;5.50;99.90;;;;;;5070374;28;20400;-77
2022/12/02 04:21:25;;;;;;;23.35;15.10;;;5.40;99.90;;;;;;5072321;28;20032;-77
2022/12/02 04:23:54;;;;;;;25.27;16.40;;;5.50;99.90;;;;;;5070411;28;20029;-77
2022/12/02 04:26:20;;;;;;;28.63;17.10;;;5.50;99.90;;;;;;5063400;28;20028;-78
2022/12/02 04:28:46;;;;;;;24.05;15.75;;;5.50;99.90;;;;;;5069901;28;20025;-76
2022/12/02 04:31:12;;;;;;;25.55;16.25;;;5.40;99.90;;;;;;5072234;28;20036;-75
2022/12/02 04:33:38;;;;;;;22.52;16.25;;;5.40;99.90;;;;;;5069651;28;20033;-75
2022/12/02 04:36:04;;;;;;;26.35;16.33;;;5.40;99.90;;;;;;5069573;28;20032;-75
2022/12/02 04:38:30;;;;;;;25.48;16.88;;;5.50;99.90;;;;;;5071671;28;20050;-75
2022/12/02 04:40:55;;;;;;;25.48;16.02;;;5.40;99.90;;;;;;5072503;28;20044;-75
2022/12/02 04:43:21;;;;;;;24.40;16.00;;;5.40;99.90;;;;;;5068538;28;20489;-75
2022/12/02 04:45:47;;;;;;;24.63;15.25;;;5.40;99.90;;;;;;5069545;28;20398;-75
2022/12/02 04:48:13;;;;;;;23.95;15.95;;;5.50;99.90;;;;;;5065533;28;20056;-75
2022/12/02 04:50:38;;;;;;;25.67;17.50;;;5.50;99.90;;;;;;5069055;28;20112;-75
2022/12/02 04:53:04;;;;;;;25.17;17.63;;;5.40;99.90;;;;;;5062867;28;20028;-75
2022/12/02 04:55:30;;;;;;;25.98;16.02;;;5.40;99.90;;;;;;5071499;28;20020;-75
2022/12/02 04:57:56;;;;;;;25.25;17.23;;;5.50;99.90;;;;;;5069405;28;20029;-75
2022/12/02 05:00:22;;;;;;;23.20;15.48;;;5.40;99.90;;;;;;5067725;28;20400;-75
2022/12/02 05:02:47;;;;;;;25.05;16.65;;;5.50;99.90;;;;;;5072431;28;20040;-75
2022/12/02 05:05:13;;;;;;;25.63;16.52;;;5.40;99.90;;;;;;5069347;28;20017;-75
2022/12/02 05:07:39;;;;;;;31.25;19.58;;;5.40;99.90;;;;;;5065215;28;20020;-75
2022/12/02 05:10:07;;;;;;;24.33;15.63;;;5.40;99.90;;;;;;5072719;28;20550;-75
2022/12/02 05:12:33;;;;;;;28.50;15.68;;;5.40;99.90;;;;;;5068491;28;20083;-75
2022/12/02 05:14:59;;;;;;;21.30;15.23;;;5.40;99.90;;;;;;5071372;28;20025;-75
2022/12/02 05:17:24;;;;;;;24.67;16.02;;;5.40;99.90;;;;;;5070254;28;20028;-75
2022/12/02 05:19:50;;;;;;;24.67;16.40;;;5.40;99.90;;;;;;5071717;28;20020;-75
2022/12/02 05:22:16;;;;;;;26.42;16.83;;;5.50;99.90;;;;;;5072203;28;20025;-75
2022/12/02 05:24:42;;;;;;;25.83;17.15;;;5.40;99.90;;;;;;5071705;28;20090;-75
2022/12/02 05:27:08;;;;;;;27.85;16.75;;;5.40;99.90;;;;;;5055447;28;20120;-75
2022/12/02 05:29:34;;;;;;;23.35;16.88;;;5.40;99.90;;;;;;5066159;28;20021;-75
2022/12/02 05:31:59;;;;;;;29.48;17.52;;;5.40;99.90;;;;;;5067863;28;20020;-75
2022/12/02 05:34:25;;;;;;;22.02;16.05;;;5.40;99.90;;;;;;5068036;28;20017;-75
2022/12/02 05:36:51;;;;;;;22.90;15.60;;;5.50;99.90;;;;;;5066642;28;20021;-75
2022/12/02 05:39:17;;;;;;;23.45;16.88;;;5.40;99.90;;;;;;5066473;28;20025;-75
2022/12/02 05:41:44;;;;;;;22.88;17.25;;;5.50;99.90;;;;;;5069198;28;20032;-75
2022/12/02 05:44:18;;;;;;;24.13;16.27;;;5.40;99.90;;;;;;5066736;28;20038;-75
2022/12/02 05:46:44;;;;;;;23.48;15.85;;;5.40;99.90;;;;;;5066088;28;20021;-75
2022/12/02 05:49:20;;;;;;;23.88;17.10;;;5.40;99.90;;;;;;5068762;28;20072;-75
2022/12/02 05:51:49;;;;;;;24.42;17.63;;;5.40;99.90;;;;;;5062631;28;20113;-75
2022/12/02 05:54:18;;;;;;;30.65;17.25;;;5.40;99.90;;;;;;5064155;28;20556;-75
2022/12/02 05:56:44;;;;;;;30.73;17.42;;;5.50;99.90;;;;;;5063663;28;20504;-75
2022/12/02 05:59:17;;;;;;;27.50;16.30;;;5.50;99.90;;;;;;5066052;28;20119;-75
2022/12/02 06:01:56;;;;;;;29.63;17.65;;;5.50;99.90;;;;;;5069133;28;20074;-75
2022/12/02 06:04:25;;;;;;;27.17;15.93;;;5.50;99.90;;;;;;5061843;28;20017;-74
2022/12/02 06:06:53;;;;;;;26.95;18.40;;;5.50;99.90;;;;;;5069418;28;20031;-75
2022/12/02 06:09:26;;;;;;;26.42;17.17;;;5.50;99.90;;;;;;5066185;28;20029;-75
2022/12/02 06:11:52;;;;;;;23.30;17.23;;;5.50;99.90;;;;;;5069741;28;20021;-75
2022/12/02 06:14:21;;;;;;;26.52;16.80;;;5.50;99.90;;;;;;5069533;28;20048;-75
2022/12/02 06:16:58;;;;;;;25.42;17.83;;;5.50;99.90;;;;;;5069637;28;20017;-74
2022/12/02 06:19:34;;;;;;;24.48;16.60;;;5.50;99.90;;;;;;5070753;28;20098;-75
2022/12/02 06:22:01;;;;;;;29.33;18.27;;;5.50;99.90;;;;;;5066677;28;20025;-74
2022/12/02 06:24:29;;;;;;;24.17;16.25;;;5.50;99.90;;;;;;5068370;28;20037;-74
2022/12/02 06:27:00;;;;;;;25.65;16.67;;;5.50;99.90;;;;;;5068423;28;20021;-75
2022/12/02 06:29:29;;;;;;;26.67;17.25;;;5.50;99.90;;;;;;5059170;28;20084;-76
2022/12/02 06:31:55;;;;;;;24.27;17.02;;;5.50;99.90;;;;;;5062890;28;20043;-75
2022/12/02 06:34:35;;;;;;;27.83;18.75;;;5.50;99.90;;;;;;5059281;28;20084;-75
2022/12/02 06:37:21;;;;;;;26.63;17.30;;;5.50;99.90;;;;;;5061942;28;20020;-75
2022/12/02 06:39:52;;;;;;;26.52;16.95;;;5.40;99.90;;;;;;5065539;28;20103;-75
2022/12/02 06:42:37;;;;;;;27.50;17.88;;;5.40;99.90;;;;;;5072852;28;20064;-75
2022/12/02 06:45:26;;;;;;;27.67;18.38;;;5.40;99.90;;;;;;5071202;28;20119;-75
2022/12/02 06:48:02;;;;;;;26.65;15.88;;;5.50;99.90;;;;;;5065329;28;20036;-76
2022/12/02 06:50:46;;;;;;;29.35;18.13;;;5.50;99.90;;;;;;5070729;28;20032;-76
2022/12/02 06:53:24;;;;;;;30.40;18.90;;;5.50;99.90;;;;;;5063858;28;20120;-75
2022/12/02 06:56:16;;;;;;;27.45;17.25;;;5.50;99.90;;;;;;5071563;28;20021;-75
2022/12/02 06:58:44;;;;;;;24.83;16.77;;;5.40;99.90;;;;;;5065138;28;20029;-75
2022/12/02 07:01:18;;;;;;;29.83;18.02;;;5.50;99.90;;;;;;5074980;28;20028;-75
2022/12/02 07:04:01;;;;;;;26.77;18.25;;;5.50;99.90;;;;;;5068235;28;20040;-75
2022/12/02 07:06:29;;;;;;;27.23;16.92;;;5.40;99.90;;;;;;5076903;28;20376;-75
2022/12/02 07:09:22;;;;;;;25.10;17.33;;;5.40;99.90;;;;;;5063415;28;20040;-75
2022/12/02 07:11:50;;;;;;;26.45;17.85;;;5.40;99.90;;;;;;5070560;28;20052;-75
2022/12/02 07:14:32;;;;;;;30.05;18.25;;;5.40;99.90;;;;;;5071902;28;20029;-77
2022/12/02 07:17:13;;;;;;;26.50;17.15;;;5.50;99.90;;;;;;5068215;28;20012;-76
2022/12/02 07:19:43;;;;;;;24.80;16.90;;;5.50;99.90;;;;;;5071398;28;20029;-77
2022/12/02 07:22:15;;;;;;;31.55;18.90;;;5.50;99.90;;;;;;5070817;28;20044;-77
2022/12/02 07:24:41;;;;;;;33.83;19.17;;;5.50;99.90;;;;;;5074440;28;20525;-77
2022/12/02 07:27:21;;;;;;;27.65;19.05;;;5.50;99.90;;;;;;5071651;28;20078;-77
2022/12/02 07:29:49;;;;;;;28.05;18.98;;;5.50;99.90;;;;;;5073606;28;20016;-77
2022/12/02 07:32:15;;;;;;;28.27;19.10;;;5.50;99.90;;;;;;5076231;28;20024;-77
2022/12/02 07:34:40;;;;;;;30.80;19.02;;;5.50;99.90;;;;;;5071034;28;20361;-77
2022/12/02 07:37:06;;;;;;;29.70;20.88;;;5.50;99.90;;;;;;5066409;28;20029;-78
2022/12/02 07:39:32;;;;;;;29.13;19.13;;;5.50;99.90;;;;;;5060675;28;20029;-78
2022/12/02 07:41:58;;;;;;;30.17;20.42;;;5.50;99.90;;;;;;5064872;28;20087;-78
2022/12/02 07:44:24;;;;;;;27.58;19.27;;;5.50;99.90;;;;;;5069508;28;20048;-78
2022/12/02 07:46:49;;;;;;;27.85;18.15;;;5.60;99.90;;;;;;5071040;28;20494;-79
2022/12/02 07:49:15;;;;;;;36.72;22.00;;;5.60;99.90;;;;;;5063435;28;20029;-78
2022/12/02 07:51:41;;;;;;;29.45;20.25;;;5.60;99.90;;;;;;5067154;28;20028;-78
2022/12/02 07:54:07;;;;;;;29.27;19.58;;;5.60;99.90;;;;;;5065046;28;20025;-78
2022/12/02 07:56:32;;;;;;;31.00;19.17;;;5.60;99.90;;;;;;5062575;28;20473;-76
2022/12/02 07:59:00;;;;;;;30.75;20.15;;;5.60;99.90;;;;;;5066225;28;20024;-78
2022/12/02 08:01:25;;;;;;;32.25;23.67;;;5.60;99.90;;;;;;5063607;28;20040;-78
2022/12/02 08:03:51;;;;;;;29.13;19.75;;;5.60;99.90;;;;;;5068196;28;20013;-78
2022/12/02 08:06:17;;;;;;;32.65;20.45;;;5.60;99.90;;;;;;5077717;28;20028;-78
2022/12/02 08:08:43;;;;;;;30.95;17.23;;;5.70;99.90;;;;;;5064106;28;20025;-78
2022/12/02 08:11:09;;;;;;;26.50;18.70;;;5.60;99.90;;;;;;5068284;28;20025;-78
2022/12/02 08:13:34;;;;;;;25.58;18.50;;;5.60;99.90;;;;;;5067110;28;20021;-75
2022/12/02 08:16:00;;;;;;;27.77;17.30;;;5.60;99.90;;;;;;5080187;28;20052;-78
2022/12/02 08:18:26;;;;;;;27.75;18.17;;;5.60;99.90;;;;;;5067748;28;20029;-78
2022/12/02 08:20:52;;;;;;;30.90;19.80;;;5.60;99.90;;;;;;5066729;28;20031;-78
2022/12/02 08:23:18;;;;;;;29.80;19.35;;;5.60;99.90;;;;;;5070839;28;20041;-78
2022/12/02 08:25:43;;;;;;;28.73;17.75;;;5.70;99.90;;;;;;5067830;28;20040;-77
2022/12/02 08:28:09;;;;;;;24.65;17.50;;;5.70;99.90;;;;;;5069433;28;20018;-78
2022/12/02 08:30:35;;;;;;;27.58;18.75;;;5.70;99.90;;;;;;5066024;28;20480;-78
2022/12/02 08:33:01;;;;;;;27.10;16.70;;;5.70;99.90;;;;;;5063142;28;20029;-78
2022/12/02 08:35:27;;;;;;;31.45;18.85;;;5.80;99.90;;;;;;5073054;28;20048;-78
2022/12/02 08:37:52;;;;;;;28.02;18.13;;;5.80;99.90;;;;;;5062542;28;20028;-78
2022/12/02 08:40:18;;;;;;;29.20;18.83;;;5.90;99.90;;;;;;5071962;28;20073;-78
2022/12/02 08:42:44;;;;;;;148.15;90.97;;;5.80;99.90;;;;;;5060893;28;20021;-78
2022/12/02 08:45:10;;;;;;;30.30;19.08;;;5.80;99.90;;;;;;5064689;28;20028;-78
2022/12/02 08:47:36;;;;;;;27.60;18.67;;;5.90;99.90;;;;;;5072039;28;20071;-78
2022/12/02 08:50:03;;;;;;;36.28;26.75;;;5.90;99.90;;;;;;5063292;28;20025;-78
2022/12/02 08:52:29;;;;;;;29.45;20.30;;;5.90;99.90;;;;;;5070302;28;20082;-78
2022/12/02 08:54:56;;;;;;;35.10;27.13;;;5.90;99.90;;;;;;5061566;28;20013;-78
2022/12/02 08:57:22;;;;;;;24.73;17.83;;;5.90;99.90;;;;;;5069897;28;20051;-78
2022/12/02 08:59:48;;;;;;;31.80;23.75;;;5.90;99.90;;;;;;5067524;28;20110;-78
2022/12/02 09:02:14;;;;;;;27.17;17.63;;;5.90;99.90;;;;;;5075523;28;20028;-78
2022/12/02 09:04:40;;;;;;;23.63;17.85;;;5.90;99.90;;;;;;5069636;28;20108;-78
2022/12/02 09:07:05;;;;;;;35.47;26.88;;;6.00;99.90;;;;;;5064581;28;20032;-78
2022/12/02 09:09:31;;;;;;;26.25;17.98;;;5.90;99.90;;;;;;5069901;28;20402;-78
2022/12/02 09:11:57;;;;;;;26.65;17.70;;;6.00;99.90;;;;;;5067020;28;20103;-78
2022/12/02 09:14:23;;;;;;;27.10;18.48;;;5.80;99.90;;;;;;5060633;28;20028;-78
2022/12/02 09:16:49;;;;;;;43.72;33.28;;;5.80;99.90;;;;;;5060201;28;20072;-77
2022/12/02 09:19:15;;;;;;;24.77;16.70;;;5.90;99.90;;;;;;5065232;28;20034;-78
2022/12/02 09:21:41;;;;;;;22.23;16.02;;;5.90;99.90;;;;;;5061066;28;20542;-77
2022/12/02 09:24:07;;;;;;;26.88;20.08;;;6.00;99.90;;;;;;5067893;28;20028;-77
2022/12/02 09:26:33;;;;;;;24.80;16.63;;;5.90;99.90;;;;;;5070892;28;20025;-76
2022/12/02 09:28:59;;;;;;;28.33;19.38;;;5.90;99.90;;;;;;5066391;28;20035;-76
2022/12/02 09:31:25;;;;;;;23.45;15.88;;;5.90;99.90;;;;;;5069370;28;20537;-77
2022/12/02 09:33:51;;;;;;;22.67;15.02;;;6.10;99.90;;;;;;5068379;28;20029;-76
2022/12/02 09:36:17;;;;;;;33.20;24.70;;;6.00;99.90;;;;;;5069532;28;20090;-76
2022/12/02 09:38:42;;;;;;;22.80;15.48;;;6.00;99.90;;;;;;5068442;28;20116;-77
2022/12/02 09:41:08;;;;;;;32.92;21.80;;;6.10;99.90;;;;;;5068796;28;20029;-77
2022/12/02 09:43:34;;;;;;;69.72;49.95;;;6.10;99.90;;;;;;5066425;28;20021;-77
2022/12/02 09:46:01;;;;;;;33.90;21.48;;;6.10;99.90;;;;;;5086818;28;20096;-77
2022/12/02 09:48:28;;;;;;;51.03;33.15;;;6.30;99.90;;;;;;5074318;28;20491;-76
2022/12/02 09:50:55;;;;;;;43.03;29.13;;;6.40;99.90;;;;;;5064216;28;20516;-76
2022/12/02 09:53:24;;;;;;;129.90;86.32;;;6.40;99.90;;;;;;5062612;28;20509;-77
2022/12/02 09:55:50;;;;;;;32.47;23.38;;;6.40;99.90;;;;;;5064696;28;20475;-77
2022/12/02 09:58:22;;;;;;;62.53;38.20;;;6.50;99.90;;;;;;5065977;28;20140;-77
2022/12/02 10:00:51;;;;;;;24.45;15.20;;;6.50;99.90;;;;;;5068670;28;20348;-77
2022/12/02 10:03:21;;;;;;;27.65;18.70;;;6.60;99.90;;;;;;5070447;28;20086;-76
2022/12/02 10:05:47;;;;;;;20.05;14.93;;;6.50;99.90;;;;;;5067720;28;20048;-77
2022/12/02 10:08:20;;;;;;;28.60;18.65;;;6.50;99.90;;;;;;5059515;28;20022;-77
2022/12/02 10:10:47;;;;;;;21.27;13.70;;;6.50;99.90;;;;;;5070340;28;20031;-78
2022/12/02 10:13:15;;;;;;;25.17;15.45;;;6.50;99.90;;;;;;5063122;28;20029;-76
2022/12/02 10:15:42;;;;;;;24.70;16.70;;;6.40;99.90;;;;;;5068786;28;20028;-76
2022/12/02 10:18:29;;;;;;;30.92;18.00;;;6.40;99.90;;;;;;5071902;28;20412;-77
2022/12/02 10:20:55;;;;;;;26.23;18.05;;;6.40;99.90;;;;;;5071170;28;20020;-77
2022/12/02 10:23:23;;;;;;;28.45;17.75;;;6.50;99.90;;;;;;5073162;28;20092;-76
2022/12/02 10:25:57;;;;;;;32.38;20.58;;;6.40;99.90;;;;;;5073235;28;20040;-76
2022/12/02 10:28:24;;;;;;;28.92;18.60;;;6.40;99.90;;;;;;5075066;28;20115;-77
2022/12/02 10:31:03;;;;;;;23.38;15.93;;;6.40;99.90;;;;;;5073679;28;20427;-77
2022/12/02 10:33:31;;;;;;;29.30;19.27;;;6.50;99.90;;;;;;5063287;28;20035;-76
2022/12/02 10:35:59;;;;;;;25.48;17.05;;;6.60;99.90;;;;;;5074005;28;20017;-76
2022/12/02 10:38:38;;;;;;;28.00;18.50;;;6.80;99.90;;;;;;5068916;28;20545;-78
2022/12/02 10:41:24;;;;;;;56.85;35.60;;;6.70;99.90;;;;;;5071356;28;20033;-76
2022/12/02 10:43:52;;;;;;;57.17;34.65;;;6.80;99.90;;;;;;5068902;28;20035;-77
2022/12/02 10:46:22;;;;;;;23.98;16.00;;;6.90;99.90;;;;;;5068525;28;20029;-77
2022/12/02 10:48:49;;;;;;;47.33;28.77;;;6.90;99.90;;;;;;5065799;28;20541;-77
2022/12/02 10:51:17;;;;;;;26.23;15.27;;;7.00;99.90;;;;;;5069427;28;20033;-77
2022/12/02 10:53:44;;;;;;;24.52;17.00;;;6.80;99.90;;;;;;5065255;28;20484;-77
2022/12/02 10:56:20;;;;;;;23.98;15.05;;;6.70;99.90;;;;;;5073893;28;20034;-77
2022/12/02 10:58:49;;;;;;;25.20;16.67;;;6.80;99.90;;;;;;5070990;28;20031;-77
2022/12/02 11:01:15;;;;;;;43.13;27.10;;;6.80;99.90;;;;;;5073273;28;20503;-77
2022/12/02 11:03:41;;;;;;;25.98;16.23;;;6.80;99.90;;;;;;5068308;28;20021;-77
2022/12/02 11:06:19;;;;;;;27.17;16.90;;;6.80;99.90;;;;;;5075152;28;20562;-77
2022/12/02 11:08:47;;;;;;;27.83;17.10;;;6.80;99.90;;;;;;5068470;28;20398;-77
2022/12/02 11:11:36;;;;;;;23.40;15.93;;;7.00;99.90;;;;;;5076610;28;20024;-77
2022/12/02 11:14:05;;;;;;;24.80;16.00;;;7.20;99.90;;;;;;5076247;28;20060;-77
2022/12/02 11:16:31;;;;;;;24.63;16.23;;;7.20;99.90;;;;;;5072728;28;20039;-77
2022/12/02 11:19:07;;;;;;;26.92;17.08;;;7.20;99.90;;;;;;5071971;28;20455;-77
2022/12/02 11:21:38;;;;;;;24.13;15.90;;;7.30;99.90;;;;;;5064451;28;20025;-77
2022/12/02 11:24:26;;;;;;;34.65;24.77;;;7.30;99.90;;;;;;5068181;28;20021;-76
2022/12/02 11:26:58;;;;;;;25.88;16.83;;;7.40;99.90;;;;;;5064522;28;20058;-77
2022/12/02 11:29:36;;;;;;;23.33;16.02;;;7.50;99.90;;;;;;5067817;28;20052;-77
2022/12/02 11:32:02;;;;;;;28.63;16.30;;;7.50;99.90;;;;;;5070415;28;20020;-77
2022/12/02 11:34:44;;;;;;;24.13;16.42;;;7.40;99.90;;;;;;5067442;28;20037;-77
2022/12/02 11:37:25;;;;;;;24.65;16.83;;;7.30;99.90;;;;;;5064210;28;20393;-77
2022/12/02 11:39:56;;;;;;;27.70;17.77;;;7.50;99.90;;;;;;5071696;28;20541;-77
2022/12/02 11:42:31;;;;;;;25.33;17.45;;;7.60;99.90;;;;;;5070082;28;20493;-77
2022/12/02 11:45:15;;;;;;;24.27;15.65;;;7.70;99.90;;;;;;5073581;28;20021;-77
2022/12/02 11:47:55;;;;;;;23.90;16.08;;;7.60;99.90;;;;;;5072450;28;20021;-77
2022/12/02 11:50:31;;;;;;;27.63;16.47;;;7.60;99.90;;;;;;5067628;28;20020;-77
2022/12/02 11:53:09;;;;;;;22.88;15.75;;;7.60;99.90;;;;;;5068161;28;20155;-77
2022/12/02 11:55:41;;;;;;;27.40;15.80;;;7.60;99.90;;;;;;5074223;28;20562;-77
2022/12/02 11:58:16;;;;;;;22.98;15.30;;;7.60;99.90;;;;;;5061357;28;20119;-77
2022/12/02 12:01:00;;;;;;;20.95;15.02;;;7.60;99.90;;;;;;5063874;28;20021;-77
2022/12/02 12:03:26;;;;;;;21.52;15.10;;;7.60;99.90;;;;;;5063552;28;20021;-77
2022/12/02 12:06:15;;;;;;;23.30;16.38;;;7.70;99.90;;;;;;5073850;28;20013;-77
2022/12/02 12:08:48;;;;;;;23.77;17.73;;;7.60;99.90;;;;;;5066295;28;20028;-77
2022/12/02 12:11:16;;;;;;;22.92;15.13;;;7.80;99.90;;;;;;5073210;28;20031;-77
2022/12/02 12:14:12;;;;;;;22.20;15.40;;;8.00;99.90;;;;;;5066722;28;20032;-77
2022/12/02 12:16:45;;;;;;;20.55;14.85;;;7.90;99.90;;;;;;5054882;28;20037;-77
2022/12/02 12:19:10;;;;;;;22.13;15.23;;;8.10;99.90;;;;;;5060693;28;20029;-77
2022/12/02 12:21:47;;;;;;;33.97;25.00;;;8.10;99.90;;;;;;5066942;28;20051;-77
2022/12/02 12:24:16;;;;;;;21.65;15.50;;;8.00;99.90;;;;;;5069883;28;20135;-77
2022/12/02 12:26:47;;;;;;;22.88;14.55;;;8.10;99.90;;;;;;5065618;28;20013;-78
2022/12/02 12:29:14;;;;;;;22.45;16.00;;;8.20;99.90;;;;;;5066898;28;20520;-77
2022/12/02 12:31:40;;;;;;;20.77;15.07;;;8.20;99.90;;;;;;5077818;28;20028;-77
2022/12/02 12:34:06;;;;;;;22.02;15.05;;;8.10;99.90;;;;;;5069545;28;20047;-77
2022/12/02 12:36:33;;;;;;;24.75;15.80;;;8.00;99.90;;;;;;5074453;28;20032;-77
2022/12/02 12:38:59;;;;;;;23.58;15.65;;;8.00;99.90;;;;;;5067087;28;20036;-77
2022/12/02 12:41:25;;;;;;;43.65;33.22;;;8.10;99.90;;;;;;5071278;28;20021;-77
2022/12/02 12:43:51;;;;;;;23.35;16.60;;;8.00;99.90;;;;;;5065143;28;20028;-77
2022/12/02 12:46:17;;;;;;;21.45;14.98;;;7.90;99.90;;;;;;5071105;28;20021;-77
2022/12/02 12:48:42;;;;;;;25.27;16.40;;;8.10;99.90;;;;;;5069849;28;20021;-77